Time;durP1;ratioP1;P1;durP2;ratioP2;P2;SDS_P1;SDS_P2;PMS_P1;PMS_P2;Temp;Humidity;BMP_temperature;BMP_pressure;BME280_temperature;BME280_humidity;BME280_pressure;Samples;Min_cycle;Max_cycle;Signal;HPM_P1;HPM_P2
2023/09/08 00:01:13;;;;;;;11.77;8.27;;;;;;;18.93;100.00;95302.47;5011524;28;20112;-91
2023/09/08 00:03:38;;;;;;;8.90;8.10;;;;;;;18.93;100.00;95299.84;5013431;28;20116;-95
2023/09/08 00:06:04;;;;;;;9.80;8.45;;;;;;;18.88;100.00;95300.47;5014420;28;20467;-96
2023/09/08 00:08:29;;;;;;;9.23;8.32;;;;;;;18.85;100.00;95293.00;5012923;28;20026;-90
2023/09/08 00:10:55;;;;;;;9.43;8.30;;;;;;;18.87;100.00;95304.13;5028646;28;20028;-95
2023/09/08 00:13:20;;;;;;;10.20;9.00;;;;;;;18.89;100.00;95303.91;5034027;28;20075;-93
2023/09/08 00:15:46;;;;;;;9.93;8.98;;;;;;;18.87;100.00;95303.31;5012145;28;20071;-92
2023/09/08 00:18:11;;;;;;;9.18;8.38;;;;;;;18.83;100.00;95315.25;5030264;28;20022;-95
2023/09/08 00:20:37;;;;;;;9.82;8.93;;;;;;;18.72;100.00;95308.06;5011863;28;20054;-93
2023/09/08 00:23:03;;;;;;;9.57;8.77;;;;;;;18.61;100.00;95316.59;4995260;28;20120;-95
2023/09/08 00:25:29;;;;;;;10.38;9.40;;;;;;;18.58;100.00;95317.03;5010889;28;20109;-92
2023/09/08 00:27:54;;;;;;;9.48;8.57;;;;;;;18.60;100.00;95321.06;5010772;28;20057;-93
2023/09/08 00:30:19;;;;;;;9.45;8.07;;;;;;;18.61;100.00;95314.78;4995045;28;20401;-92
2023/09/08 00:32:45;;;;;;;9.88;8.88;;;;;;;18.62;100.00;95321.63;4993424;28;20021;-93
2023/09/08 00:35:12;;;;;;;10.50;9.48;;;;;;;18.52;100.00;95333.63;4994865;28;20079;-91
2023/09/08 00:37:37;;;;;;;11.70;9.40;;;;;;;18.36;100.00;95335.69;5009932;28;20462;-94
2023/09/08 00:40:03;;;;;;;9.63;8.80;;;;;;;18.32;100.00;95338.94;5011407;28;20131;-92
2023/09/08 00:42:28;;;;;;;12.27;10.68;;;;;;;18.25;100.00;95338.94;5028723;28;20022;-95
2023/09/08 00:44:53;;;;;;;9.73;8.73;;;;;;;18.32;100.00;95344.19;5011634;28;20017;-93
2023/09/08 00:47:19;;;;;;;11.75;9.48;;;;;;;18.33;100.00;95343.94;5013242;28;20083;-96
2023/09/08 00:49:45;;;;;;;11.38;10.38;;;;;;;18.34;100.00;95342.94;5030082;28;20029;-96
2023/09/08 00:52:11;;;;;;;10.32;9.35;;;;;;;18.32;100.00;95344.97;4996740;28;20115;-93
2023/09/08 00:54:36;;;;;;;11.25;10.15;;;;;;;18.27;100.00;95343.97;5010338;28;20116;-95
2023/09/08 00:57:05;;;;;;;10.10;9.10;;;;;;;18.22;100.00;95352.47;4995768;28;20116;-95
2023/09/08 00:59:32;;;;;;;10.38;9.40;;;;;;;18.22;100.00;95364.78;5028621;28;20033;-94
2023/09/08 01:01:58;;;;;;;11.95;8.80;;;;;;;18.23;100.00;95364.59;5013242;28;20098;-96
2023/09/08 01:04:23;;;;;;;9.85;8.95;;;;;;;18.24;100.00;95363.56;4995388;28;20037;-96
2023/09/08 01:06:49;;;;;;;9.23;8.40;;;;;;;18.17;100.00;95368.03;5029703;28;20028;-95
2023/09/08 01:09:15;;;;;;;9.13;8.00;;;;;;;18.17;100.00;95368.03;5028706;28;20057;-94
2023/09/08 01:11:41;;;;;;;11.30;9.30;;;;;;;18.18;100.00;95367.00;5011598;28;20030;-96
2023/09/08 01:14:07;;;;;;;13.23;9.80;;;;;;;18.15;100.00;95354.31;5010072;28;20060;-95
2023/09/08 01:16:33;;;;;;;9.98;9.18;;;;;;;18.15;100.00;95350.88;5009941;28;20033;-95
2023/09/08 01:18:59;;;;;;;11.52;10.00;;;;;;;18.02;100.00;95364.84;5010776;28;20375;-95
2023/09/08 01:21:39;;;;;;;9.32;8.45;;;;;;;18.01;100.00;95368.50;5028582;28;20029;-94
2023/09/08 01:24:27;;;;;;;10.00;8.82;;;;;;;17.97;100.00;95369.09;5032209;28;20022;-95
2023/09/08 01:26:53;;;;;;;11.80;9.32;;;;;;;17.86;100.00;95373.16;5018782;28;20037;-92
2023/09/08 01:29:19;;;;;;;10.23;9.15;;;;;;;17.87;100.00;95378.22;5013713;28;20029;-96
2023/09/08 01:31:44;;;;;;;10.82;9.80;;;;;;;17.72;100.00;95379.44;4998584;28;20541;-94
2023/09/08 01:34:10;;;;;;;15.65;10.13;;;;;;;17.69;100.00;95383.25;4995777;28;20115;-94
2023/09/08 01:36:35;;;;;;;12.50;10.15;;;;;;;17.61;100.00;95383.47;4998769;28;20021;-95
2023/09/08 01:39:01;;;;;;;11.63;10.50;;;;;;;17.57;100.00;95395.38;4996593;28;20551;-94
2023/09/08 01:41:27;;;;;;;11.70;10.50;;;;;;;17.50;100.00;95391.13;4998646;28;20029;-94
2023/09/08 01:43:52;;;;;;;12.05;10.23;;;;;;;17.48;100.00;95395.75;4997297;28;20541;-96
2023/09/08 01:46:18;;;;;;;12.00;10.75;;;;;;;17.43;100.00;95412.09;5013933;28;20117;-96
2023/09/08 01:48:43;;;;;;;11.52;10.43;;;;;;;17.34;100.00;95421.94;5032458;28;20037;-95
2023/09/08 01:51:09;;;;;;;11.52;10.52;;;;;;;17.35;100.00;95418.31;5013498;28;20091;-93
2023/09/08 01:53:35;;;;;;;12.00;10.68;;;;;;;17.23;100.00;95427.78;4997946;28;20025;-95
2023/09/08 01:56:00;;;;;;;11.68;10.48;;;;;;;17.13;100.00;95435.22;5012947;28;20029;-95
2023/09/08 01:58:26;;;;;;;11.93;10.68;;;;;;;17.11;100.00;95429.38;5014425;28;20495;-94
2023/09/08 02:00:51;;;;;;;12.70;10.88;;;;;;;17.10;100.00;95443.47;5030577;28;20025;-96
2023/09/08 02:03:17;;;;;;;12.45;11.30;;;;;;;16.95;100.00;95440.22;5014044;28;20049;-96
2023/09/08 02:05:43;;;;;;;12.68;11.38;;;;;;;16.95;100.00;95447.25;4996953;28;20107;-93
2023/09/08 02:08:08;;;;;;;12.73;10.38;;;;;;;16.83;100.00;95447.81;5013527;28;20060;-95
2023/09/08 02:10:33;;;;;;;13.10;11.30;;;;;;;16.69;100.00;95461.06;5015213;28;20033;-94
2023/09/08 02:12:59;;;;;;;11.90;10.73;;;;;;;16.63;100.00;95465.22;5030343;28;20095;-94
2023/09/08 02:15:24;;;;;;;12.90;11.75;;;;;;;16.64;100.00;95468.66;5031344;28;20036;-93
2023/09/08 02:17:54;;;;;;;12.63;11.48;;;;;;;16.67;100.00;95463.03;4995986;28;20037;-94
2023/09/08 02:20:20;;;;;;;12.15;11.10;;;;;;;16.72;100.00;95455.44;4997403;28;20053;-94
2023/09/08 02:22:47;;;;;;;13.15;11.82;;;;;;;16.67;100.00;95463.03;5013096;28;20021;-94
2023/09/08 02:25:13;;;;;;;12.48;11.13;;;;;;;16.63;100.00;95475.69;5013485;28;20498;-93
2023/09/08 02:27:39;;;;;;;12.48;11.25;;;;;;;16.62;100.00;95466.25;4997521;28;20116;-94
2023/09/08 02:30:05;;;;;;;14.55;11.13;;;;;;;16.51;100.00;95477.22;5012245;28;20469;-96
2023/09/08 02:32:30;;;;;;;15.80;11.85;;;;;;;16.51;100.00;95484.25;5012990;28;20029;-96
2023/09/08 02:34:56;;;;;;;13.00;11.80;;;;;;;16.24;100.00;95496.41;5013614;28;20060;-96
2023/09/08 02:39:56;;;;;;;14.65;12.00;;;;;;;15.88;100.00;95550.59;5411607;23;20066;-94
2023/09/08 02:42:21;;;;;;;13.68;12.52;;;;;;;15.94;100.00;95550.66;4992334;28;20485;-95
2023/09/08 02:44:47;;;;;;;13.75;12.32;;;;;;;15.91;100.00;95558.88;5011714;28;20484;-93
2023/09/08 02:47:12;;;;;;;15.95;12.65;;;;;;;15.94;100.00;95563.72;5010372;28;20038;-94
2023/09/08 02:49:38;;;;;;;13.63;12.13;;;;;;;16.00;100.00;95546.47;4977260;28;20026;-95
2023/09/08 02:52:04;;;;;;;14.85;12.30;;;;;;;16.00;100.00;95544.66;5010842;28;20068;-95
2023/09/08 02:54:29;;;;;;;14.45;11.80;;;;;;;15.86;100.00;95552.59;5009688;28;20108;-95
2023/09/08 02:56:54;;;;;;;13.43;12.15;;;;;;;15.82;100.00;95555.59;5011215;28;20148;-95
2023/09/08 02:59:20;;;;;;;14.32;13.00;;;;;;;15.78;100.00;95561.38;5009675;28;20037;-95
2023/09/08 03:01:46;;;;;;;13.95;12.60;;;;;;;15.76;100.00;95553.72;4994055;28;20054;-93
2023/09/08 03:04:12;;;;;;;14.13;12.88;;;;;;;15.72;100.00;95559.50;5009611;28;20106;-95
2023/09/08 03:06:37;;;;;;;15.13;13.75;;;;;;;15.44;100.00;95569.88;4996092;28;20032;-96
2023/09/08 03:09:02;;;;;;;14.13;12.93;;;;;;;15.28;100.00;95601.41;5011645;28;20026;-96
2023/09/08 03:11:29;;;;;;;13.38;11.98;;;;;;;15.21;100.00;95609.16;4993219;28;20450;-94
2023/09/08 03:13:54;;;;;;;14.18;12.93;;;;;;;15.14;100.00;95615.28;5011390;28;20022;-94
2023/09/08 03:16:20;;;;;;;14.35;12.95;;;;;;;15.19;100.00;95623.34;4991446;28;20034;-96
2023/09/08 03:18:45;;;;;;;13.45;12.13;;;;;;;15.25;100.00;95620.03;4993369;28;20104;-95
2023/09/08 03:21:14;;;;;;;14.05;12.68;;;;;;;15.31;100.00;95588.78;5009706;28;20032;-95
2023/09/08 03:23:40;;;;;;;15.33;12.80;;;;;;;15.23;100.00;95608.97;4993210;28;20037;-95
2023/09/08 03:26:06;;;;;;;14.48;13.15;;;;;;;15.10;100.00;95606.19;4992289;28;20041;-94
2023/09/08 03:28:33;;;;;;;14.93;13.48;;;;;;;15.03;100.00;95618.34;5003511;28;20021;-95
2023/09/08 03:30:58;;;;;;;15.15;13.93;;;;;;;14.92;100.00;95614.41;5012536;28;20031;-94
2023/09/08 03:33:24;;;;;;;15.82;14.25;;;;;;;14.82;100.00;95624.28;5012013;28;20017;-95
2023/09/08 03:35:49;;;;;;;16.40;14.10;;;;;;;14.87;100.00;95629.78;5030135;28;20060;-96
2023/09/08 03:38:14;;;;;;;14.13;12.73;;;;;;;14.79;100.00;95624.66;5012063;28;20522;-94
2023/09/08 03:40:40;;;;;;;13.85;12.18;;;;;;;14.73;100.00;95633.19;5012226;28;20079;-94
2023/09/08 03:43:06;;;;;;;14.73;13.52;;;;;;;14.75;100.00;95642.47;5011226;28;20025;-94
2023/09/08 03:45:31;;;;;;;15.23;13.65;;;;;;;14.70;100.00;95644.78;5011609;28;20037;-94
2023/09/08 03:47:56;;;;;;;15.60;14.23;;;;;;;14.61;100.00;95640.63;5029421;28;20040;-94
2023/09/08 03:50:22;;;;;;;16.98;14.40;;;;;;;14.63;100.00;95637.88;5011899;28;20133;-92
2023/09/08 03:52:47;;;;;;;15.10;13.40;;;;;;;14.57;100.00;95643.78;5011695;28;20033;-95
2023/09/08 03:55:13;;;;;;;15.15;13.82;;;;;;;14.54;100.00;95649.38;5011063;28;20010;-92
2023/09/08 03:57:39;;;;;;;15.02;13.50;;;;;;;14.51;100.00;95654.94;5029843;28;20060;-95
2023/09/08 04:00:06;;;;;;;18.63;14.50;;;;;;;14.46;100.00;95668.50;5029062;28;20025;-92
2023/09/08 04:02:32;;;;;;;17.80;15.90;;;;;;;14.43;100.00;95670.63;5030674;28;20021;-94
2023/09/08 04:04:57;;;;;;;16.73;15.15;;;;;;;14.43;100.00;95668.03;5010357;28;20025;-94
2023/09/08 04:07:22;;;;;;;20.33;14.43;;;;;;;14.46;100.00;95673.69;5029929;28;20018;-94
2023/09/08 04:09:48;;;;;;;16.48;14.88;;;;;;;14.54;100.00;95667.63;5028477;28;20115;-96
2023/09/08 04:12:13;;;;;;;18.92;14.68;;;;;;;14.54;100.00;95655.41;5011923;28;20029;-95
2023/09/08 04:14:38;;;;;;;15.05;12.88;;;;;;;14.50;100.00;95645.50;5028831;28;20067;-94
2023/09/08 04:17:05;;;;;;;16.25;14.77;;;;;;;14.51;100.00;95645.28;5028289;28;20021;-94
2023/09/08 04:19:31;;;;;;;14.45;13.10;;;;;;;14.53;100.00;95648.56;5029411;28;20029;-95
2023/09/08 04:21:56;;;;;;;14.25;12.68;;;;;;;14.51;100.00;95632.25;5028016;28;20026;-93
2023/09/08 04:24:22;;;;;;;13.60;12.32;;;;;;;14.70;100.00;95626.53;5029326;28;20113;-94
2023/09/08 04:26:47;;;;;;;13.57;11.82;;;;;;;14.77;100.00;95610.97;5027549;28;20061;-94
2023/09/08 04:29:12;;;;;;;17.10;12.50;;;;;;;14.79;100.00;95601.19;5011408;28;20498;-95
2023/09/08 04:31:38;;;;;;;14.35;12.95;;;;;;;14.89;100.00;95606.94;5011080;28;20042;-94
2023/09/08 04:34:03;;;;;;;14.90;12.32;;;;;;;14.97;100.00;95604.22;5028223;28;20044;-94
2023/09/08 04:36:30;;;;;;;14.80;13.25;;;;;;;14.91;100.00;95598.91;5029139;28;20056;-94
2023/09/08 04:38:56;;;;;;;16.23;13.98;;;;;;;14.86;100.00;95615.13;5027195;28;20049;-94
2023/09/08 04:41:21;;;;;;;15.40;13.10;;;;;;;15.05;100.00;95614.56;5029346;28;20033;-92
2023/09/08 04:43:46;;;;;;;13.80;11.48;;;;;;;15.39;100.00;95600.09;5027258;28;20060;-95
2023/09/08 04:46:12;;;;;;;12.23;10.98;;;;;;;16.04;100.00;95545.91;5032048;28;20033;-94
2023/09/08 04:48:37;;;;;;;11.80;10.25;;;;;;;17.35;100.00;95420.13;4994140;28;20543;-92
2023/09/08 04:51:03;;;;;;;10.98;10.05;;;;;;;18.63;100.00;95323.25;5011119;28;20059;-90
2023/09/08 04:53:28;;;;;;;9.63;8.80;;;;;;;19.75;100.00;95288.19;5010818;28;20033;-93
2023/09/08 04:55:53;;;;;;;9.32;7.63;;;;;;;20.75;100.00;95270.94;5027439;28;20084;-91
2023/09/08 04:58:19;;;;;;;7.57;6.85;;;;;;;21.25;100.00;95258.22;5033346;28;20025;-90
2023/09/08 05:00:44;;;;;;;14.10;7.85;;;;;;;21.49;100.00;95257.97;5031366;28;20013;-89
2023/09/08 05:03:10;;;;;;;10.30;6.75;;;;;;;21.68;100.00;95249.91;5032872;28;20116;-90
2023/09/08 05:05:35;;;;;;;8.98;7.18;;;;;;;22.15;100.00;95253.28;5013566;28;20736;-90
2023/09/08 05:08:01;;;;;;;7.70;5.97;;;;;;;22.19;100.00;95255.22;5032603;28;20048;-90
2023/09/08 05:10:26;;;;;;;6.32;5.70;;;;;;;22.38;100.00;95254.00;5014225;28;20040;-89
2023/09/08 05:12:52;;;;;;;6.05;5.15;;;;;;;22.64;100.00;95251.78;5031942;28;20056;-91
2023/09/08 05:15:20;;;;;;;6.47;5.85;;;;;;;22.74;100.00;95246.72;5032533;28;20053;-89
2023/09/08 05:17:46;;;;;;;6.18;5.57;;;;;;;22.70;100.00;95245.63;5014001;28;20081;-89
2023/09/08 05:20:11;;;;;;;8.80;6.03;;;;;;;23.14;100.00;95242.09;5014922;28;20156;-91
2023/09/08 05:22:36;;;;;;;10.02;5.75;;;;;;;23.66;100.00;95250.56;5031517;28;20025;-91
2023/09/08 05:25:03;;;;;;;6.30;5.63;;;;;;;24.12;100.00;95244.00;5032251;28;20446;-90
2023/09/08 05:27:28;;;;;;;6.68;6.07;;;;;;;24.29;100.00;95247.38;5030918;28;20045;-88
2023/09/08 05:29:54;;;;;;;7.00;6.05;;;;;;;24.44;100.00;95244.88;5014157;28;20116;-88
2023/09/08 05:32:19;;;;;;;7.38;6.03;;;;;;;24.59;100.00;95239.72;5014361;28;20018;-89
2023/09/08 05:34:45;;;;;;;7.43;6.72;;;;;;;24.70;100.00;95245.13;5030941;28;20024;-89
2023/09/08 05:37:10;;;;;;;6.35;5.85;;;;;;;24.51;100.00;95247.31;5014504;28;20492;-89
2023/09/08 05:39:36;;;;;;;6.78;6.07;;;;;;;24.67;100.00;95247.22;5012741;28;20045;-89
2023/09/08 05:42:01;;;;;;;7.28;6.57;;;;;;;25.19;100.00;95243.97;5031752;28;20017;-88
2023/09/08 05:44:26;;;;;;;7.10;6.50;;;;;;;25.08;99.58;95244.94;5030432;28;20028;-88
2023/09/08 05:46:52;;;;;;;9.40;6.18;;;;;;;26.06;94.05;95251.41;5014592;28;20112;-88
2023/09/08 05:49:20;;;;;;;11.70;6.53;;;;;;;26.21;95.38;95248.81;5030814;28;20021;-88
2023/09/08 05:51:46;;;;;;;6.70;5.75;;;;;;;25.69;91.34;95256.78;5031592;28;20104;-89
2023/09/08 05:54:11;;;;;;;7.13;6.47;;;;;;;26.71;86.28;95256.91;5013704;28;20096;-89
2023/09/08 05:56:37;;;;;;;7.18;6.63;;;;;;;27.22;84.17;95251.69;5030577;28;20064;-88
2023/09/08 05:59:03;;;;;;;9.00;6.68;;;;;;;27.46;79.40;95255.41;5013951;28;20475;-89
2023/09/08 06:01:30;;;;;;;7.88;6.40;;;;;;;27.69;79.84;95259.34;5012853;28;20048;-89
2023/09/08 06:03:55;;;;;;;8.48;6.70;;;;;;;26.33;82.90;95257.38;4997569;28;20128;-89
2023/09/08 06:06:21;;;;;;;10.15;6.60;;;;;;;26.31;86.43;95270.13;5030164;28;20022;-90
2023/09/08 06:08:47;;;;;;;10.15;6.43;;;;;;;25.20;89.59;95261.50;5014090;28;20029;-90
2023/09/08 06:11:12;;;;;;;7.05;6.38;;;;;;;25.88;90.17;95259.84;4996681;28;20030;-89
2023/09/08 06:13:37;;;;;;;6.82;5.70;;;;;;;25.29;90.09;95259.97;5030584;28;20060;-88
2023/09/08 06:16:03;;;;;;;5.63;5.13;;;;;;;25.97;87.58;95252.97;5014046;28;20124;-91
2023/09/08 06:18:31;;;;;;;5.30;4.70;;;;;;;25.93;84.39;95257.19;5012220;28;20025;-93
2023/09/08 06:20:57;;;;;;;5.15;4.65;;;;;;;28.53;69.79;95254.00;5031239;28;20025;-89
2023/09/08 06:23:22;;;;;;;4.97;4.45;;;;;;;30.96;57.49;95248.91;5011714;28;20049;-87
2023/09/08 06:25:49;;;;;;;8.57;4.03;;;;;;;31.36;54.58;95256.28;5013580;28;20017;-93
2023/09/08 06:28:14;;;;;;;4.43;4.13;;;;;;;30.72;55.32;95260.47;5029979;28;20083;-88
2023/09/08 06:30:41;;;;;;;4.28;3.88;;;;;;;31.93;51.87;95257.69;5030893;28;20033;-90
2023/09/08 06:33:08;;;;;;;3.97;3.65;;;;;;;31.61;52.28;95252.41;5031015;28;20045;-89
2023/09/08 06:35:33;;;;;;;4.25;3.85;;;;;;;31.85;50.44;95253.03;5029869;28;20041;-89
2023/09/08 06:37:59;;;;;;;5.38;4.05;;;;;;;33.28;49.15;95263.16;5013483;28;20484;-88
2023/09/08 06:40:25;;;;;;;6.13;3.93;;;;;;;33.54;48.47;95264.13;5029113;28;20041;-89
2023/09/08 06:42:50;;;;;;;5.28;3.80;;;;;;;33.23;48.69;95264.06;5031044;28;20052;-88
2023/09/08 06:45:16;;;;;;;4.93;2.97;;;;;;;33.48;45.67;95260.00;5011303;28;20037;-88
2023/09/08 06:47:42;;;;;;;3.85;3.10;;;;;;;35.13;43.16;95268.34;5031067;28;20044;-89
2023/09/08 06:50:07;;;;;;;7.63;3.23;;;;;;;32.09;43.42;95260.91;5030368;28;20471;-88
2023/09/08 06:52:32;;;;;;;3.50;3.30;;;;;;;31.05;46.55;95263.25;5030260;28;20074;-93
2023/09/08 06:54:58;;;;;;;4.18;3.00;;;;;;;32.43;42.21;95261.28;5030793;28;20045;-94
2023/09/08 06:57:23;;;;;;;4.22;2.95;;;;;;;34.02;40.85;95268.81;5011177;28;20038;-93
2023/09/08 06:59:49;;;;;;;4.50;2.80;;;;;;;33.60;39.23;95271.00;5030826;28;20079;-92
2023/09/08 07:02:14;;;;;;;3.15;2.60;;;;;;;33.77;39.37;95268.41;5029660;28;20770;-93
2023/09/08 07:04:39;;;;;;;3.47;2.75;;;;;;;34.16;38.43;95266.84;5012838;28;20112;-88
2023/09/08 07:07:07;;;;;;;4.57;2.92;;;;;;;31.97;40.17;95266.75;5029703;28;20026;-85
2023/09/08 07:09:36;;;;;;;3.33;3.03;;;;;;;31.99;41.14;95263.75;5012512;28;20061;-92
2023/09/08 07:12:06;;;;;;;3.38;2.75;;;;;;;30.87;41.90;95264.00;5030207;28;20434;-92
2023/09/08 07:14:32;;;;;;;4.30;2.47;;;;;;;30.37;43.65;95263.59;5011361;28;20067;-91
2023/09/08 07:16:57;;;;;;;3.88;2.85;;;;;;;31.15;41.69;95263.06;5015807;28;20029;-93
2023/09/08 07:19:23;;;;;;;2.78;2.58;;;;;;;30.03;42.42;95265.59;5013213;28;20033;-85
2023/09/08 07:21:48;;;;;;;3.28;2.60;;;;;;;34.40;37.45;95272.63;5031561;28;20479;-96
2023/09/08 07:24:13;;;;;;;4.63;2.55;;;;;;;31.43;40.09;95267.44;5031071;28;20108;-91
2023/09/08 07:26:39;;;;;;;3.55;2.60;;;;;;;33.47;36.85;95261.09;5013461;28;20026;-88
2023/09/08 07:29:04;;;;;;;7.68;2.75;;;;;;;32.60;37.80;95255.31;5011877;28;20056;-90
2023/09/08 07:31:30;;;;;;;3.47;2.80;;;;;;;32.53;38.43;95261.06;5014327;28;20388;-91
2023/09/08 07:33:55;;;;;;;5.70;3.15;;;;;;;29.92;41.27;95261.47;5029181;28;20530;-84
2023/09/08 07:36:20;;;;;;;3.20;2.78;;;;;;;28.53;46.33;95262.00;5029344;28;20037;-86
2023/09/08 07:38:46;;;;;;;4.75;2.95;;;;;;;27.41;49.56;95250.06;5029737;28;20436;-84
2023/09/08 07:41:11;;;;;;;2.80;2.50;;;;;;;26.58;50.89;95251.34;5029263;28;20026;-85
2023/09/08 07:43:40;;;;;;;3.30;2.90;;;;;;;27.20;51.24;95259.09;5031411;28;20036;-88
2023/09/08 07:46:06;;;;;;;6.78;3.08;;;;;;;27.95;49.44;95255.56;5031002;28;20026;-87
2023/09/08 07:48:31;;;;;;;3.63;3.13;;;;;;;27.46;50.44;95249.28;5012694;28;20547;-89
2023/09/08 07:50:59;;;;;;;3.58;2.80;;;;;;;27.24;50.82;95260.97;5029999;28;20399;-94
2023/09/08 08:05:07;;;;;;;6.82;3.10;;;;;;;26.17;56.48;95255.72;5108374;27;20906;-93
2023/09/08 08:07:33;;;;;;;4.60;2.58;;;;;;;27.81;53.53;95248.38;5107455;28;20416;-90
2023/09/08 08:09:58;;;;;;;4.65;3.22;;;;;;;27.23;51.41;95253.25;5088986;28;20023;-92
2023/09/08 08:12:24;;;;;;;4.75;3.17;;;;;;;25.74;57.90;95251.53;5109279;28;20027;-87
2023/09/08 08:14:49;;;;;;;3.90;3.50;;;;;;;25.53;60.67;95255.91;5104911;28;20523;-87
2023/09/08 08:17:17;;;;;;;3.53;2.78;;;;;;;27.17;55.42;95254.31;5109122;28;20084;-89
2023/09/08 08:19:43;;;;;;;6.73;3.87;;;;;;;26.74;57.55;95247.63;5105600;28;20063;-82
2023/09/08 08:22:08;;;;;;;6.82;3.25;;;;;;;27.14;58.79;95253.00;5108860;28;20463;-89
2023/09/08 08:24:33;;;;;;;6.65;3.10;;;;;;;25.84;61.29;95251.59;5106177;28;20381;-90
2023/09/08 08:27:01;;;;;;;4.18;3.22;;;;;;;26.43;62.06;95257.41;5090178;28;20032;-91
2023/09/08 08:29:27;;;;;;;4.63;4.05;;;;;;;26.33;61.95;95245.97;5106601;28;20048;-94
2023/09/08 08:31:52;;;;;;;3.33;3.03;;;;;;;25.73;59.59;95255.22;5090208;28;20400;-79
2023/09/08 08:34:17;;;;;;;9.90;3.20;;;;;;;25.84;59.20;95254.25;5105598;28;20062;-86
2023/09/08 08:36:43;;;;;;;4.93;3.28;;;;;;;26.23;59.84;95259.22;5088427;28;20503;-96
2023/09/08 08:39:08;;;;;;;4.93;3.03;;;;;;;25.59;59.13;95254.88;5108378;28;20031;-89
2023/09/08 08:41:37;;;;;;;4.57;2.63;;;;;;;26.46;55.68;95246.25;5105830;28;20115;-92
2023/09/08 08:44:03;;;;;;;8.63;3.92;;;;;;;26.12;63.09;95248.50;5109504;28;20020;-91
2023/09/08 08:46:29;;;;;;;5.35;3.60;;;;;;;26.47;62.99;95247.03;5107492;28;20024;-85
2023/09/08 08:48:55;;;;;;;8.60;4.05;;;;;;;25.86;61.16;95251.31;5088030;28;20518;-81
2023/09/08 08:51:23;;;;;;;4.85;3.67;;;;;;;25.93;59.30;95250.03;5104435;28;20184;-84
2023/09/08 08:53:48;;;;;;;3.40;3.20;;;;;;;26.09;59.85;95242.91;5105831;28;20032;-90
2023/09/08 08:56:14;;;;;;;3.42;3.03;;;;;;;26.68;56.41;95243.38;5106300;28;20550;-88
2023/09/08 08:58:40;;;;;;;5.25;3.22;;;;;;;25.44;60.25;95233.53;5104065;28;20506;-87
2023/09/08 09:01:06;;;;;;;4.97;3.40;;;;;;;25.48;58.88;95231.97;5089844;28;20028;-82
2023/09/08 09:03:32;;;;;;;3.88;3.53;;;;;;;26.34;58.86;95245.69;5106147;28;20520;-88
2023/09/08 09:05:57;;;;;;;4.55;3.53;;;;;;;25.46;61.03;95241.25;5092228;28;20024;-80
2023/09/08 09:08:23;;;;;;;5.63;3.45;;;;;;;25.83;60.92;95241.22;5091731;28;20031;-89
2023/09/08 09:10:50;;;;;;;3.80;3.50;;;;;;;26.11;58.73;95235.47;5093223;28;20039;-90
2023/09/08 09:13:15;;;;;;;8.10;3.60;;;;;;;25.37;60.16;95232.97;5074985;28;20412;-90
2023/09/08 09:15:42;;;;;;;4.60;3.28;;;;;;;25.50;61.52;95235.19;5091369;28;20027;-83
2023/09/08 09:18:08;;;;;;;4.65;3.30;;;;;;;25.76;59.32;95227.38;5092777;28;20062;-91
2023/09/08 09:20:34;;;;;;;6.88;3.90;;;;;;;26.21;57.52;95224.91;5092191;28;20027;-89
2023/09/08 09:23:00;;;;;;;6.03;3.65;;;;;;;27.10;56.98;95227.97;5091930;28;20023;-91
2023/09/08 09:25:28;;;;;;;10.13;3.17;;;;;;;25.72;62.12;95228.97;5093887;28;20020;-91
2023/09/08 09:27:58;;;;;;;6.72;3.33;;;;;;;25.73;61.64;95233.19;5096891;28;20054;-88
2023/09/08 09:30:24;;;;;;;4.80;3.20;;;;;;;25.49;64.52;95228.31;5094686;28;20511;-95
2023/09/08 09:33:05;;;;;;;17.05;3.92;;;;;;;24.95;64.53;95232.91;5093513;28;20032;-92
2023/09/08 09:35:42;;;;;;;5.65;3.83;;;;;;;25.91;63.63;95232.75;5092434;28;20028;-94
2023/09/08 09:38:08;;;;;;;3.80;3.42;;;;;;;26.30;60.43;95228.66;5090803;28;20101;-87
2023/09/08 09:40:34;;;;;;;8.10;3.83;;;;;;;27.18;57.96;95222.16;5075815;28;20509;-87
2023/09/08 09:42:59;;;;;;;4.05;3.08;;;;;;;28.07;58.26;95215.28;5073194;28;20020;-88
2023/09/08 09:45:25;;;;;;;5.35;3.47;;;;;;;26.88;59.61;95213.34;5092679;28;20030;-89
2023/09/08 09:47:51;;;;;;;3.45;3.15;;;;;;;25.50;62.50;95221.94;5090639;28;20020;-86
2023/09/08 09:50:34;;;;;;;4.38;3.75;;;;;;;25.90;62.45;95215.22;5091599;28;20026;-87
2023/09/08 09:53:02;;;;;;;5.32;3.65;;;;;;;26.27;60.77;95212.44;5075387;28;20036;-92
2023/09/08 09:55:28;;;;;;;5.90;3.40;;;;;;;26.17;60.93;95215.88;5076310;28;20066;-96
2023/09/08 09:58:00;;;;;;;8.70;4.00;;;;;;;25.85;62.09;95210.69;5093389;28;20500;-90
2023/09/08 10:00:26;;;;;;;4.07;3.70;;;;;;;25.97;61.55;95203.31;5073058;28;20024;-79
2023/09/08 10:02:53;;;;;;;4.85;3.35;;;;;;;25.92;62.38;95202.47;5090767;28;20531;-94
2023/09/08 10:05:19;;;;;;;4.65;3.90;;;;;;;25.57;63.21;95201.28;5091686;28;20347;-85
2023/09/08 10:07:47;;;;;;;7.95;3.60;;;;;;;25.59;64.64;95199.16;5073400;28;20016;-91
2023/09/08 10:10:13;;;;;;;5.65;3.75;;;;;;;25.76;63.71;95190.19;5090409;28;20080;-83
2023/09/08 10:12:38;;;;;;;5.18;3.80;;;;;;;25.99;65.17;95197.72;5092182;28;20510;-87
2023/09/08 10:15:05;;;;;;;4.40;3.35;;;;;;;25.45;64.95;95190.03;5091082;28;20024;-93
2023/09/08 10:17:31;;;;;;;5.22;3.65;;;;;;;25.89;63.83;95190.53;5088328;28;20031;-90
2023/09/08 10:20:01;;;;;;;5.40;3.85;;;;;;;26.23;62.20;95182.16;5090111;28;20454;-79
2023/09/08 10:22:30;;;;;;;3.85;3.55;;;;;;;25.90;61.30;95186.03;5071961;28;20028;-79
2023/09/08 10:24:58;;;;;;;5.90;3.63;;;;;;;26.13;60.22;95172.28;5090132;28;20055;-77
2023/09/08 10:27:24;;;;;;;5.00;3.45;;;;;;;26.28;59.08;95184.81;5089354;28;20108;-88
2023/09/08 10:29:49;;;;;;;5.22;3.63;;;;;;;26.60;58.72;95178.22;5089513;28;20058;-93
2023/09/08 10:32:15;;;;;;;6.63;3.80;;;;;;;27.53;59.12;95184.03;5090470;28;20024;-88
2023/09/08 10:34:41;;;;;;;3.85;3.42;;;;;;;26.38;58.96;95183.00;5088660;28;20036;-93
2023/09/08 10:37:25;;;;;;;5.60;3.45;;;;;;;27.14;61.05;95185.69;5073201;28;20031;-89
2023/09/08 10:39:51;;;;;;;6.57;3.10;;;;;;;27.31;57.63;95180.06;5088829;28;20035;-83
2023/09/08 10:42:16;;;;;;;5.50;3.05;;;;;;;26.43;60.66;95190.97;5089710;28;20024;-90
2023/09/08 10:44:49;;;;;;;6.85;3.85;;;;;;;26.50;61.64;95185.38;5090669;28;20401;-92
2023/09/08 10:47:18;;;;;;;6.32;4.03;;;;;;;26.36;62.98;95179.78;5090835;28;20088;-91
2023/09/08 10:49:45;;;;;;;4.43;4.03;;;;;;;25.75;61.95;95191.28;5089898;28;20504;-89
2023/09/08 10:52:12;;;;;;;3.75;3.45;;;;;;;26.31;61.51;95171.00;5088743;28;20081;-85
2023/09/08 10:54:45;;;;;;;4.60;3.45;;;;;;;25.53;60.63;95186.13;5089468;28;20028;-89
2023/09/08 10:57:15;;;;;;;3.97;3.67;;;;;;;25.66;60.17;95186.44;5071766;28;20020;-89
2023/09/08 11:00:11;;;;;;;4.95;3.88;;;;;;;25.83;60.89;95175.63;5072679;28;20196;-84
2023/09/08 11:02:52;;;;;;;7.45;3.53;;;;;;;25.88;59.43;95185.50;5072366;28;20032;-88
2023/09/08 11:05:19;;;;;;;5.97;3.78;;;;;;;26.14;61.59;95176.53;5089034;28;20051;-86
2023/09/08 11:07:45;;;;;;;5.88;4.05;;;;;;;26.53;62.74;95177.69;5089882;28;20114;-93
2023/09/08 11:10:12;;;;;;;4.57;3.38;;;;;;;26.48;59.22;95172.38;5088433;28;20057;-92
2023/09/08 11:12:37;;;;;;;5.65;3.50;;;;;;;25.37;62.18;95176.44;5072385;28;20043;-91
2023/09/08 11:15:05;;;;;;;4.60;3.58;;;;;;;25.74;60.20;95179.06;5088618;28;20032;-92
2023/09/08 11:17:31;;;;;;;3.90;3.60;;;;;;;25.24;61.53;95176.94;5088424;28;20016;-85
2023/09/08 11:19:57;;;;;;;6.47;4.13;;;;;;;25.48;60.71;95170.16;5071839;28;20035;-90
2023/09/08 11:22:26;;;;;;;5.78;3.80;;;;;;;25.65;59.92;95173.47;5070864;28;20024;-88
2023/09/08 11:24:58;;;;;;;5.70;4.05;;;;;;;24.96;60.80;95162.16;5088524;28;20039;-88
2023/09/08 11:27:23;;;;;;;4.15;3.75;;;;;;;25.29;62.30;95159.19;5087522;28;20055;-89
2023/09/08 11:29:52;;;;;;;5.85;3.95;;;;;;;25.64;60.36;95163.88;5088537;28;20474;-87
2023/09/08 11:32:17;;;;;;;;;;;;;;;25.61;60.45;95159.91;5088487;28;20408;-90
2023/09/08 11:34:43;;;;;;;4.07;3.70;;;;;;;26.02;60.69;95157.38;5088244;28;19998;-91